sensor_id;sensor_type;location;lat;lon;timestamp;P1;durP1;ratioP1;P2;durP2;ratioP2
35522;SDS011;61478;50.820;4.330;2022-09-01T00:02:22;9.73;;;3.97;;
35522;SDS011;61478;50.820;4.330;2022-09-01T00:04:51;8.88;;;3.92;;
35522;SDS011;61478;50.820;4.330;2022-09-01T00:07:22;14.73;;;4.40;;
35522;SDS011;61478;50.820;4.330;2022-09-01T00:09:49;10.25;;;5.20;;
35522;SDS011;61478;50.820;4.330;2022-09-01T00:12:15;11.23;;;5.35;;
35522;SDS011;61478;50.820;4.330;2022-09-01T00:14:41;12.30;;;7.13;;
35522;SDS011;61478;50.820;4.330;2022-09-01T00:17:09;15.35;;;8.18;;
35522;SDS011;61478;50.820;4.330;2022-09-01T00:19:37;14.50;;;8.52;;
35522;SDS011;61478;50.820;4.330;2022-09-01T00:22:04;13.93;;;8.13;;
35522;SDS011;61478;50.820;4.330;2022-09-01T00:24:30;13.05;;;6.75;;
35522;SDS011;61478;50.820;4.330;2022-09-01T00:26:57;16.77;;;6.45;;
35522;SDS011;61478;50.820;4.330;2022-09-01T00:29:23;12.82;;;5.60;;
35522;SDS011;61478;50.820;4.330;2022-09-01T00:31:50;11.85;;;5.32;;
35522;SDS011;61478;50.820;4.330;2022-09-01T00:34:16;13.32;;;6.40;;
35522;SDS011;61478;50.820;4.330;2022-09-01T00:36:42;13.00;;;4.68;;
35522;SDS011;61478;50.820;4.330;2022-09-01T00:39:08;8.50;;;4.63;;
35522;SDS011;61478;50.820;4.330;2022-09-01T00:41:35;13.85;;;4.32;;
35522;SDS011;61478;50.820;4.330;2022-09-01T00:44:05;14.18;;;4.40;;
35522;SDS011;61478;50.820;4.330;2022-09-01T00:46:35;6.70;;;3.80;;
35522;SDS011;61478;50.820;4.330;2022-09-01T00:49:11;7.88;;;4.20;;
35522;SDS011;61478;50.820;4.330;2022-09-01T00:51:41;9.80;;;3.92;;
35522;SDS011;61478;50.820;4.330;2022-09-01T00:54:11;11.60;;;4.15;;
35522;SDS011;61478;50.820;4.330;2022-09-01T00:56:40;9.88;;;4.63;;
35522;SDS011;61478;50.820;4.330;2022-09-01T00:59:06;6.25;;;3.85;;
35522;SDS011;61478;50.820;4.330;2022-09-01T01:01:34;12.07;;;4.30;;
35522;SDS011;61478;50.820;4.330;2022-09-01T01:04:03;10.07;;;3.97;;
35522;SDS011;61478;50.820;4.330;2022-09-01T01:06:31;10.48;;;4.47;;
35522;SDS011;61478;50.820;4.330;2022-09-01T01:08:58;9.88;;;4.50;;
35522;SDS011;61478;50.820;4.330;2022-09-01T01:11:27;12.10;;;4.97;;
35522;SDS011;61478;50.820;4.330;2022-09-01T01:14:01;8.80;;;4.72;;
35522;SDS011;61478;50.820;4.330;2022-09-01T01:16:41;14.02;;;4.60;;
35522;SDS011;61478;50.820;4.330;2022-09-01T01:22:24;11.95;;;4.55;;
35522;SDS011;61478;50.820;4.330;2022-09-01T01:25:12;8.50;;;4.82;;
35522;SDS011;61478;50.820;4.330;2022-09-01T01:27:38;11.40;;;5.53;;
35522;SDS011;61478;50.820;4.330;2022-09-01T01:30:08;10.05;;;5.03;;
35522;SDS011;61478;50.820;4.330;2022-09-01T01:32:36;11.52;;;5.07;;
35522;SDS011;61478;50.820;4.330;2022-09-01T01:35:07;9.63;;;4.97;;
35522;SDS011;61478;50.820;4.330;2022-09-01T01:37:41;13.05;;;6.80;;
35522;SDS011;61478;50.820;4.330;2022-09-01T01:40:13;13.68;;;5.80;;
35522;SDS011;61478;50.820;4.330;2022-09-01T01:42:45;14.13;;;5.60;;
35522;SDS011;61478;50.820;4.330;2022-09-01T01:45:13;11.77;;;5.47;;
35522;SDS011;61478;50.820;4.330;2022-09-01T01:47:47;13.70;;;4.93;;
35522;SDS011;61478;50.820;4.330;2022-09-01T01:50:18;10.30;;;5.40;;
35522;SDS011;61478;50.820;4.330;2022-09-01T01:52:50;10.88;;;5.72;;
35522;SDS011;61478;50.820;4.330;2022-09-01T01:55:16;8.68;;;5.50;;
35522;SDS011;61478;50.820;4.330;2022-09-01T01:57:44;11.30;;;6.05;;
35522;SDS011;61478;50.820;4.330;2022-09-01T02:00:20;9.18;;;5.72;;
35522;SDS011;61478;50.820;4.330;2022-09-01T02:02:49;15.25;;;6.28;;
35522;SDS011;61478;50.820;4.330;2022-09-01T02:05:23;16.38;;;6.35;;
35522;SDS011;61478;50.820;4.330;2022-09-01T02:07:51;10.18;;;5.80;;
35522;SDS011;61478;50.820;4.330;2022-09-01T02:10:22;15.43;;;5.97;;
35522;SDS011;61478;50.820;4.330;2022-09-01T02:12:49;9.95;;;5.80;;
35522;SDS011;61478;50.820;4.330;2022-09-01T02:15:15;13.63;;;5.95;;
35522;SDS011;61478;50.820;4.330;2022-09-01T02:17:41;15.88;;;5.82;;
35522;SDS011;61478;50.820;4.330;2022-09-01T02:20:11;13.63;;;6.60;;
35522;SDS011;61478;50.820;4.330;2022-09-01T02:22:40;13.75;;;6.18;;
35522;SDS011;61478;50.820;4.330;2022-09-01T02:25:08;11.43;;;6.13;;
35522;SDS011;61478;50.820;4.330;2022-09-01T02:27:35;13.00;;;6.18;;
35522;SDS011;61478;50.820;4.330;2022-09-01T02:30:04;13.30;;;5.60;;
35522;SDS011;61478;50.820;4.330;2022-09-01T02:32:35;14.75;;;6.10;;
35522;SDS011;61478;50.820;4.330;2022-09-01T02:35:01;12.05;;;6.07;;
35522;SDS011;61478;50.820;4.330;2022-09-01T02:37:31;16.35;;;6.32;;
35522;SDS011;61478;50.820;4.330;2022-09-01T02:39:58;15.40;;;5.78;;
35522;SDS011;61478;50.820;4.330;2022-09-01T02:42:24;19.15;;;6.72;;
35522;SDS011;61478;50.820;4.330;2022-09-01T02:44:54;13.88;;;6.10;;
35522;SDS011;61478;50.820;4.330;2022-09-01T02:47:21;22.15;;;7.05;;
35522;SDS011;61478;50.820;4.330;2022-09-01T02:49:48;11.80;;;6.15;;
35522;SDS011;61478;50.820;4.330;2022-09-01T02:52:14;17.80;;;6.70;;
35522;SDS011;61478;50.820;4.330;2022-09-01T02:54:42;12.63;;;5.93;;
35522;SDS011;61478;50.820;4.330;2022-09-01T02:57:10;13.73;;;7.05;;
35522;SDS011;61478;50.820;4.330;2022-09-01T02:59:37;15.98;;;6.50;;
35522;SDS011;61478;50.820;4.330;2022-09-01T03:02:03;13.65;;;6.25;;
35522;SDS011;61478;50.820;4.330;2022-09-01T03:04:31;20.98;;;6.75;;
35522;SDS011;61478;50.820;4.330;2022-09-01T03:06:59;17.95;;;6.72;;
35522;SDS011;61478;50.820;4.330;2022-09-01T03:09:28;16.50;;;6.38;;
35522;SDS011;61478;50.820;4.330;2022-09-01T03:11:57;17.20;;;7.00;;
35522;SDS011;61478;50.820;4.330;2022-09-01T03:14:23;16.75;;;6.75;;
35522;SDS011;61478;50.820;4.330;2022-09-01T03:16:50;15.02;;;6.15;;
35522;SDS011;61478;50.820;4.330;2022-09-01T03:19:16;15.32;;;6.72;;
35522;SDS011;61478;50.820;4.330;2022-09-01T03:21:44;17.73;;;7.18;;
35522;SDS011;61478;50.820;4.330;2022-09-01T03:24:13;16.70;;;7.45;;
35522;SDS011;61478;50.820;4.330;2022-09-01T03:26:41;17.75;;;6.85;;
35522;SDS011;61478;50.820;4.330;2022-09-01T03:29:08;15.70;;;7.32;;
35522;SDS011;61478;50.820;4.330;2022-09-01T03:31:35;17.75;;;6.82;;
35522;SDS011;61478;50.820;4.330;2022-09-01T03:34:01;14.73;;;6.90;;
35522;SDS011;61478;50.820;4.330;2022-09-01T03:36:29;9.32;;;6.38;;
35522;SDS011;61478;50.820;4.330;2022-09-01T03:38:57;15.13;;;6.40;;
35522;SDS011;61478;50.820;4.330;2022-09-01T03:41:25;12.73;;;6.65;;
35522;SDS011;61478;50.820;4.330;2022-09-01T03:43:56;15.15;;;6.93;;
35522;SDS011;61478;50.820;4.330;2022-09-01T03:46:23;14.20;;;6.60;;
35522;SDS011;61478;50.820;4.330;2022-09-01T03:48:54;16.98;;;6.60;;
35522;SDS011;61478;50.820;4.330;2022-09-01T03:51:22;14.75;;;6.50;;
35522;SDS011;61478;50.820;4.330;2022-09-01T03:53:50;16.23;;;6.78;;
35522;SDS011;61478;50.820;4.330;2022-09-01T03:56:22;13.05;;;6.20;;
35522;SDS011;61478;50.820;4.330;2022-09-01T03:58:52;19.30;;;6.72;;
35522;SDS011;61478;50.820;4.330;2022-09-01T04:01:20;13.05;;;6.93;;
35522;SDS011;61478;50.820;4.330;2022-09-01T04:03:46;14.48;;;7.10;;
35522;SDS011;61478;50.820;4.330;2022-09-01T04:06:13;12.77;;;6.88;;
35522;SDS011;61478;50.820;4.330;2022-09-01T04:08:42;15.73;;;6.30;;
35522;SDS011;61478;50.820;4.330;2022-09-01T04:11:13;11.80;;;6.20;;
35522;SDS011;61478;50.820;4.330;2022-09-01T04:13:43;10.20;;;5.70;;
35522;SDS011;61478;50.820;4.330;2022-09-01T04:16:17;13.85;;;5.75;;
35522;SDS011;61478;50.820;4.330;2022-09-01T04:19:14;13.80;;;5.95;;
35522;SDS011;61478;50.820;4.330;2022-09-01T04:21:44;16.63;;;6.85;;
35522;SDS011;61478;50.820;4.330;2022-09-01T04:24:11;14.88;;;6.15;;
35522;SDS011;61478;50.820;4.330;2022-09-01T04:26:39;14.60;;;5.78;;
35522;SDS011;61478;50.820;4.330;2022-09-01T04:29:06;18.77;;;6.85;;
35522;SDS011;61478;50.820;4.330;2022-09-01T04:31:34;12.90;;;6.50;;
35522;SDS011;61478;50.820;4.330;2022-09-01T04:34:02;19.83;;;6.65;;
35522;SDS011;61478;50.820;4.330;2022-09-01T04:36:38;15.48;;;6.80;;
35522;SDS011;61478;50.820;4.330;2022-09-01T04:39:06;17.35;;;6.60;;
35522;SDS011;61478;50.820;4.330;2022-09-01T04:41:35;19.00;;;5.90;;
35522;SDS011;61478;50.820;4.330;2022-09-01T04:44:03;19.15;;;6.30;;
35522;SDS011;61478;50.820;4.330;2022-09-01T04:46:30;26.42;;;7.60;;
35522;SDS011;61478;50.820;4.330;2022-09-01T04:49:00;15.65;;;7.05;;
35522;SDS011;61478;50.820;4.330;2022-09-01T04:51:36;13.45;;;6.57;;
35522;SDS011;61478;50.820;4.330;2022-09-01T04:54:06;20.60;;;7.03;;
35522;SDS011;61478;50.820;4.330;2022-09-01T04:56:35;13.13;;;6.45;;
35522;SDS011;61478;50.820;4.330;2022-09-01T04:59:01;16.55;;;6.95;;
35522;SDS011;61478;50.820;4.330;2022-09-01T05:01:31;13.23;;;6.45;;
35522;SDS011;61478;50.820;4.330;2022-09-01T05:04:15;20.85;;;7.38;;
35522;SDS011;61478;50.820;4.330;2022-09-01T05:06:45;15.50;;;7.00;;
35522;SDS011;61478;50.820;4.330;2022-09-01T05:09:14;14.63;;;6.32;;
35522;SDS011;61478;50.820;4.330;2022-09-01T05:11:42;13.65;;;6.32;;
35522;SDS011;61478;50.820;4.330;2022-09-01T05:14:09;22.58;;;7.60;;
35522;SDS011;61478;50.820;4.330;2022-09-01T05:16:39;23.48;;;7.72;;
35522;SDS011;61478;50.820;4.330;2022-09-01T05:19:08;21.88;;;7.03;;
35522;SDS011;61478;50.820;4.330;2022-09-01T05:21:47;15.63;;;9.27;;
35522;SDS011;61478;50.820;4.330;2022-09-01T05:24:14;16.83;;;7.13;;
35522;SDS011;61478;50.820;4.330;2022-09-01T05:26:43;18.23;;;7.03;;
35522;SDS011;61478;50.820;4.330;2022-09-01T05:29:11;27.92;;;7.43;;
35522;SDS011;61478;50.820;4.330;2022-09-01T05:31:41;17.35;;;5.72;;
35522;SDS011;61478;50.820;4.330;2022-09-01T05:34:09;14.43;;;5.82;;
35522;SDS011;61478;50.820;4.330;2022-09-01T05:36:37;12.85;;;6.15;;
35522;SDS011;61478;50.820;4.330;2022-09-01T05:39:06;14.18;;;5.55;;
35522;SDS011;61478;50.820;4.330;2022-09-01T05:41:35;15.25;;;6.15;;
35522;SDS011;61478;50.820;4.330;2022-09-01T05:44:01;19.35;;;5.95;;
35522;SDS011;61478;50.820;4.330;2022-09-01T05:46:32;27.98;;;6.55;;
35522;SDS011;61478;50.820;4.330;2022-09-01T05:49:00;12.38;;;4.75;;
35522;SDS011;61478;50.820;4.330;2022-09-01T05:51:27;18.98;;;6.32;;
35522;SDS011;61478;50.820;4.330;2022-09-01T05:53:55;10.15;;;5.60;;
35522;SDS011;61478;50.820;4.330;2022-09-01T05:56:25;15.13;;;5.40;;
35522;SDS011;61478;50.820;4.330;2022-09-01T05:58:53;16.88;;;5.88;;
35522;SDS011;61478;50.820;4.330;2022-09-01T06:01:20;16.90;;;6.13;;
35522;SDS011;61478;50.820;4.330;2022-09-01T06:03:50;13.43;;;5.93;;
35522;SDS011;61478;50.820;4.330;2022-09-01T06:06:24;13.60;;;5.15;;
35522;SDS011;61478;50.820;4.330;2022-09-01T06:08:52;21.42;;;6.50;;
35522;SDS011;61478;50.820;4.330;2022-09-01T06:11:23;12.95;;;5.47;;
35522;SDS011;61478;50.820;4.330;2022-09-01T06:13:50;10.50;;;5.30;;
35522;SDS011;61478;50.820;4.330;2022-09-01T06:16:21;11.35;;;5.47;;
35522;SDS011;61478;50.820;4.330;2022-09-01T06:18:49;16.08;;;5.70;;
35522;SDS011;61478;50.820;4.330;2022-09-01T06:21:17;14.75;;;5.22;;
35522;SDS011;61478;50.820;4.330;2022-09-01T06:23:44;15.88;;;5.35;;
35522;SDS011;61478;50.820;4.330;2022-09-01T06:26:20;14.52;;;5.80;;
35522;SDS011;61478;50.820;4.330;2022-09-01T06:28:48;19.45;;;6.07;;
35522;SDS011;61478;50.820;4.330;2022-09-01T06:31:25;11.85;;;5.15;;
35522;SDS011;61478;50.820;4.330;2022-09-01T06:33:54;19.02;;;5.72;;
35522;SDS011;61478;50.820;4.330;2022-09-01T06:36:22;10.68;;;5.18;;
35522;SDS011;61478;50.820;4.330;2022-09-01T06:38:49;14.80;;;5.03;;
35522;SDS011;61478;50.820;4.330;2022-09-01T06:41:15;22.27;;;6.00;;
35522;SDS011;61478;50.820;4.330;2022-09-01T06:43:46;11.65;;;5.07;;
35522;SDS011;61478;50.820;4.330;2022-09-01T06:46:18;17.00;;;5.53;;
35522;SDS011;61478;50.820;4.330;2022-09-01T06:48:45;14.73;;;5.38;;
35522;SDS011;61478;50.820;4.330;2022-09-01T06:51:16;13.45;;;5.40;;
35522;SDS011;61478;50.820;4.330;2022-09-01T06:53:45;13.63;;;5.13;;
35522;SDS011;61478;50.820;4.330;2022-09-01T06:56:15;15.90;;;5.05;;
35522;SDS011;61478;50.820;4.330;2022-09-01T06:58:45;16.33;;;5.38;;
35522;SDS011;61478;50.820;4.330;2022-09-01T07:01:13;17.95;;;6.20;;
35522;SDS011;61478;50.820;4.330;2022-09-01T07:03:45;7.00;;;4.80;;
35522;SDS011;61478;50.820;4.330;2022-09-01T07:06:15;18.48;;;5.25;;
35522;SDS011;61478;50.820;4.330;2022-09-01T07:08:41;18.60;;;5.85;;
35522;SDS011;61478;50.820;4.330;2022-09-01T07:11:20;9.00;;;4.93;;
35522;SDS011;61478;50.820;4.330;2022-09-01T07:13:52;10.25;;;4.25;;
35522;SDS011;61478;50.820;4.330;2022-09-01T07:16:20;12.13;;;4.97;;
35522;SDS011;61478;50.820;4.330;2022-09-01T07:18:53;11.95;;;5.00;;
35522;SDS011;61478;50.820;4.330;2022-09-01T07:21:21;13.43;;;4.67;;
35522;SDS011;61478;50.820;4.330;2022-09-01T07:23:49;6.88;;;4.05;;
35522;SDS011;61478;50.820;4.330;2022-09-01T07:26:16;15.40;;;4.95;;
35522;SDS011;61478;50.820;4.330;2022-09-01T07:28:47;11.27;;;4.38;;
35522;SDS011;61478;50.820;4.330;2022-09-01T07:31:28;19.38;;;5.18;;
35522;SDS011;61478;50.820;4.330;2022-09-01T07:33:57;17.30;;;5.18;;
35522;SDS011;61478;50.820;4.330;2022-09-01T07:36:26;12.48;;;4.80;;
35522;SDS011;61478;50.820;4.330;2022-09-01T07:38:52;14.18;;;4.28;;
35522;SDS011;61478;50.820;4.330;2022-09-01T07:41:22;16.13;;;4.72;;
35522;SDS011;61478;50.820;4.330;2022-09-01T07:43:51;13.63;;;5.00;;
35522;SDS011;61478;50.820;4.330;2022-09-01T07:46:19;10.88;;;4.45;;
35522;SDS011;61478;50.820;4.330;2022-09-01T07:48:47;7.30;;;4.00;;
35522;SDS011;61478;50.820;4.330;2022-09-01T07:51:15;10.63;;;4.22;;
35522;SDS011;61478;50.820;4.330;2022-09-01T07:53:44;9.45;;;4.45;;
35522;SDS011;61478;50.820;4.330;2022-09-01T07:56:16;14.02;;;4.65;;
35522;SDS011;61478;50.820;4.330;2022-09-01T07:58:44;12.95;;;4.13;;
35522;SDS011;61478;50.820;4.330;2022-09-01T08:01:12;17.67;;;6.20;;
35522;SDS011;61478;50.820;4.330;2022-09-01T08:03:43;14.88;;;3.80;;
35522;SDS011;61478;50.820;4.330;2022-09-01T08:06:16;13.55;;;4.30;;
35522;SDS011;61478;50.820;4.330;2022-09-01T08:08:43;8.88;;;3.92;;
35522;SDS011;61478;50.820;4.330;2022-09-01T08:11:14;12.23;;;3.78;;
35522;SDS011;61478;50.820;4.330;2022-09-01T08:13:44;25.92;;;4.80;;
35522;SDS011;61478;50.820;4.330;2022-09-01T08:16:10;7.40;;;3.22;;
35522;SDS011;61478;50.820;4.330;2022-09-01T08:18:36;10.07;;;4.18;;
35522;SDS011;61478;50.820;4.330;2022-09-01T08:21:06;13.18;;;3.97;;
35522;SDS011;61478;50.820;4.330;2022-09-01T08:23:33;18.48;;;4.57;;
35522;SDS011;61478;50.820;4.330;2022-09-01T08:26:06;12.20;;;3.65;;
35522;SDS011;61478;50.820;4.330;2022-09-01T08:28:33;8.15;;;3.72;;
35522;SDS011;61478;50.820;4.330;2022-09-01T08:30:59;10.65;;;4.53;;
35522;SDS011;61478;50.820;4.330;2022-09-01T08:33:29;7.35;;;3.30;;
35522;SDS011;61478;50.820;4.330;2022-09-01T08:35:59;8.88;;;3.70;;
35522;SDS011;61478;50.820;4.330;2022-09-01T08:38:26;7.55;;;3.05;;
35522;SDS011;61478;50.820;4.330;2022-09-01T08:40:53;6.40;;;2.70;;
35522;SDS011;61478;50.820;4.330;2022-09-01T08:43:24;10.38;;;3.40;;
35522;SDS011;61478;50.820;4.330;2022-09-01T08:46:23;8.07;;;3.10;;
35522;SDS011;61478;50.820;4.330;2022-09-01T08:48:55;6.50;;;3.33;;
35522;SDS011;61478;50.820;4.330;2022-09-01T08:51:35;9.63;;;3.42;;
35522;SDS011;61478;50.820;4.330;2022-09-01T08:57:05;7.15;;;3.10;;
35522;SDS011;61478;50.820;4.330;2022-09-01T08:59:34;4.60;;;3.00;;
35522;SDS011;61478;50.820;4.330;2022-09-01T09:04:43;9.48;;;2.80;;
35522;SDS011;61478;50.820;4.330;2022-09-01T09:10:41;8.75;;;3.13;;
35522;SDS011;61478;50.820;4.330;2022-09-01T09:18:45;7.85;;;2.60;;
35522;SDS011;61478;50.820;4.330;2022-09-01T09:21:15;10.85;;;3.25;;
35522;SDS011;61478;50.820;4.330;2022-09-01T09:23:46;6.50;;;2.08;;
35522;SDS011;61478;50.820;4.330;2022-09-01T09:26:15;6.18;;;2.28;;
35522;SDS011;61478;50.820;4.330;2022-09-01T09:28:45;12.77;;;5.32;;
35522;SDS011;61478;50.820;4.330;2022-09-01T09:31:25;5.22;;;2.75;;
35522;SDS011;61478;50.820;4.330;2022-09-01T09:33:51;7.47;;;2.40;;
35522;SDS011;61478;50.820;4.330;2022-09-01T09:36:19;6.22;;;2.20;;
35522;SDS011;61478;50.820;4.330;2022-09-01T09:38:57;9.50;;;3.10;;
35522;SDS011;61478;50.820;4.330;2022-09-01T09:41:38;6.63;;;2.33;;
35522;SDS011;61478;50.820;4.330;2022-09-01T09:46:52;7.57;;;2.47;;
35522;SDS011;61478;50.820;4.330;2022-09-01T09:49:19;14.45;;;2.83;;
35522;SDS011;61478;50.820;4.330;2022-09-01T09:51:51;11.88;;;2.88;;
35522;SDS011;61478;50.820;4.330;2022-09-01T09:54:23;3.58;;;2.25;;
35522;SDS011;61478;50.820;4.330;2022-09-01T09:57:10;10.68;;;2.63;;
35522;SDS011;61478;50.820;4.330;2022-09-01T09:59:43;10.10;;;2.45;;
35522;SDS011;61478;50.820;4.330;2022-09-01T10:04:58;9.43;;;2.00;;
35522;SDS011;61478;50.820;4.330;2022-09-01T10:07:36;3.72;;;1.98;;
35522;SDS011;61478;50.820;4.330;2022-09-01T10:10:04;5.38;;;1.80;;
35522;SDS011;61478;50.820;4.330;2022-09-01T10:12:33;4.38;;;1.67;;
35522;SDS011;61478;50.820;4.330;2022-09-01T10:15:04;10.60;;;2.10;;
35522;SDS011;61478;50.820;4.330;2022-09-01T10:17:33;8.43;;;1.75;;
35522;SDS011;61478;50.820;4.330;2022-09-01T10:20:16;4.13;;;1.90;;
35522;SDS011;61478;50.820;4.330;2022-09-01T10:22:46;4.75;;;1.65;;
35522;SDS011;61478;50.820;4.330;2022-09-01T10:25:32;5.55;;;1.98;;
35522;SDS011;61478;50.820;4.330;2022-09-01T10:28:08;5.65;;;1.60;;
35522;SDS011;61478;50.820;4.330;2022-09-01T10:30:40;12.23;;;1.83;;
35522;SDS011;61478;50.820;4.330;2022-09-01T10:33:10;9.35;;;2.55;;
35522;SDS011;61478;50.820;4.330;2022-09-01T10:35:40;12.00;;;1.70;;
35522;SDS011;61478;50.820;4.330;2022-09-01T10:38:16;10.40;;;1.83;;
35522;SDS011;61478;50.820;4.330;2022-09-01T10:43:39;7.40;;;2.28;;
35522;SDS011;61478;50.820;4.330;2022-09-01T10:46:09;2.88;;;1.67;;
35522;SDS011;61478;50.820;4.330;2022-09-01T10:48:46;6.28;;;1.73;;
35522;SDS011;61478;50.820;4.330;2022-09-01T10:53:46;2.90;;;1.30;;
35522;SDS011;61478;50.820;4.330;2022-09-01T10:56:24;3.40;;;1.70;;
35522;SDS011;61478;50.820;4.330;2022-09-01T11:04:06;3.17;;;1.42;;
35522;SDS011;61478;50.820;4.330;2022-09-01T11:06:44;4.70;;;1.90;;
35522;SDS011;61478;50.820;4.330;2022-09-01T11:09:28;9.43;;;1.50;;
35522;SDS011;61478;50.820;4.330;2022-09-01T11:14:55;3.08;;;1.60;;
35522;SDS011;61478;50.820;4.330;2022-09-01T11:17:26;3.50;;;1.85;;
35522;SDS011;61478;50.820;4.330;2022-09-01T11:22:44;3.33;;;1.67;;
35522;SDS011;61478;50.820;4.330;2022-09-01T11:25:34;12.75;;;2.33;;
35522;SDS011;61478;50.820;4.330;2022-09-01T11:30:52;10.18;;;2.30;;
35522;SDS011;61478;50.820;4.330;2022-09-01T11:47:40;3.22;;;1.40;;
35522;SDS011;61478;50.820;4.330;2022-09-01T11:52:55;5.80;;;1.52;;
35522;SDS011;61478;50.820;4.330;2022-09-01T11:57:56;4.93;;;1.83;;
35522;SDS011;61478;50.820;4.330;2022-09-01T12:00:33;6.45;;;1.85;;
35522;SDS011;61478;50.820;4.330;2022-09-01T12:03:23;8.07;;;2.17;;
35522;SDS011;61478;50.820;4.330;2022-09-01T12:05:52;5.32;;;1.70;;
35522;SDS011;61478;50.820;4.330;2022-09-01T12:08:26;6.38;;;1.67;;
35522;SDS011;61478;50.820;4.330;2022-09-01T12:11:29;9.65;;;1.85;;
35522;SDS011;61478;50.820;4.330;2022-09-01T12:16:27;6.00;;;2.13;;
35522;SDS011;61478;50.820;4.330;2022-09-01T12:18:55;4.43;;;1.50;;
35522;SDS011;61478;50.820;4.330;2022-09-01T12:21:29;10.98;;;1.80;;
35522;SDS011;61478;50.820;4.330;2022-09-01T12:24:14;7.40;;;1.70;;
35522;SDS011;61478;50.820;4.330;2022-09-01T12:26:42;6.97;;;1.85;;
35522;SDS011;61478;50.820;4.330;2022-09-01T12:29:10;5.05;;;1.88;;
35522;SDS011;61478;50.820;4.330;2022-09-01T12:31:39;3.25;;;1.50;;
35522;SDS011;61478;50.820;4.330;2022-09-01T12:34:22;2.58;;;1.50;;
35522;SDS011;61478;50.820;4.330;2022-09-01T12:37:01;1.95;;;1.70;;
35522;SDS011;61478;50.820;4.330;2022-09-01T12:39:32;9.80;;;2.05;;
35522;SDS011;61478;50.820;4.330;2022-09-01T12:42:07;4.07;;;1.60;;
35522;SDS011;61478;50.820;4.330;2022-09-01T12:44:41;7.78;;;1.83;;
35522;SDS011;61478;50.820;4.330;2022-09-01T12:47:12;7.40;;;2.58;;
35522;SDS011;61478;50.820;4.330;2022-09-01T12:49:58;4.50;;;1.45;;
35522;SDS011;61478;50.820;4.330;2022-09-01T12:52:28;2.78;;;1.67;;
35522;SDS011;61478;50.820;4.330;2022-09-01T13:05:39;7.47;;;2.13;;
35522;SDS011;61478;50.820;4.330;2022-09-01T13:08:07;5.40;;;1.85;;
35522;SDS011;61478;50.820;4.330;2022-09-01T13:10:36;3.92;;;2.03;;
35522;SDS011;61478;50.820;4.330;2022-09-01T13:13:04;11.68;;;2.72;;
35522;SDS011;61478;50.820;4.330;2022-09-01T13:15:33;3.75;;;1.90;;
35522;SDS011;61478;50.820;4.330;2022-09-01T13:18:01;2.67;;;1.45;;
35522;SDS011;61478;50.820;4.330;2022-09-01T13:20:27;5.97;;;1.50;;
35522;SDS011;61478;50.820;4.330;2022-09-01T13:22:53;7.18;;;1.50;;
35522;SDS011;61478;50.820;4.330;2022-09-01T13:25:19;6.55;;;2.00;;
35522;SDS011;61478;50.820;4.330;2022-09-01T13:27:46;9.48;;;1.65;;
35522;SDS011;61478;50.820;4.330;2022-09-01T13:30:14;8.48;;;2.03;;
35522;SDS011;61478;50.820;4.330;2022-09-01T13:32:43;4.90;;;1.80;;
35522;SDS011;61478;50.820;4.330;2022-09-01T13:35:12;5.38;;;2.10;;
35522;SDS011;61478;50.820;4.330;2022-09-01T13:37:46;6.70;;;1.60;;
35522;SDS011;61478;50.820;4.330;2022-09-01T13:40:13;14.05;;;2.10;;
35522;SDS011;61478;50.820;4.330;2022-09-01T13:42:41;3.80;;;1.70;;
35522;SDS011;61478;50.820;4.330;2022-09-01T13:45:08;10.35;;;1.80;;
35522;SDS011;61478;50.820;4.330;2022-09-01T13:47:37;6.22;;;1.90;;
35522;SDS011;61478;50.820;4.330;2022-09-01T13:50:04;6.93;;;1.73;;
35522;SDS011;61478;50.820;4.330;2022-09-01T13:52:31;4.57;;;1.90;;
35522;SDS011;61478;50.820;4.330;2022-09-01T13:54:57;8.57;;;4.60;;
35522;SDS011;61478;50.820;4.330;2022-09-01T13:57:23;13.75;;;3.20;;
35522;SDS011;61478;50.820;4.330;2022-09-01T13:59:49;10.10;;;3.08;;
35522;SDS011;61478;50.820;4.330;2022-09-01T14:02:15;13.93;;;2.17;;
35522;SDS011;61478;50.820;4.330;2022-09-01T14:04:41;5.90;;;2.20;;
35522;SDS011;61478;50.820;4.330;2022-09-01T14:07:07;3.17;;;1.98;;
35522;SDS011;61478;50.820;4.330;2022-09-01T14:09:33;7.90;;;1.85;;
35522;SDS011;61478;50.820;4.330;2022-09-01T14:11:59;6.18;;;1.80;;
35522;SDS011;61478;50.820;4.330;2022-09-01T14:14:25;6.72;;;2.00;;
35522;SDS011;61478;50.820;4.330;2022-09-01T14:16:50;8.35;;;1.90;;
35522;SDS011;61478;50.820;4.330;2022-09-01T14:19:17;8.35;;;2.03;;
35522;SDS011;61478;50.820;4.330;2022-09-01T14:21:43;9.27;;;2.15;;
35522;SDS011;61478;50.820;4.330;2022-09-01T14:24:08;4.05;;;1.58;;
35522;SDS011;61478;50.820;4.330;2022-09-01T14:26:34;6.88;;;1.88;;
35522;SDS011;61478;50.820;4.330;2022-09-01T14:29:00;2.70;;;1.90;;
35522;SDS011;61478;50.820;4.330;2022-09-01T14:31:27;8.85;;;2.70;;
35522;SDS011;61478;50.820;4.330;2022-09-01T14:33:54;12.10;;;2.30;;
35522;SDS011;61478;50.820;4.330;2022-09-01T14:36:24;2.83;;;1.52;;
35522;SDS011;61478;50.820;4.330;2022-09-01T14:38:51;6.45;;;1.60;;
35522;SDS011;61478;50.820;4.330;2022-09-01T14:41:18;4.47;;;2.10;;
35522;SDS011;61478;50.820;4.330;2022-09-01T14:43:46;5.75;;;2.20;;
35522;SDS011;61478;50.820;4.330;2022-09-01T14:46:13;8.88;;;3.28;;
35522;SDS011;61478;50.820;4.330;2022-09-01T14:48:39;6.07;;;1.77;;
35522;SDS011;61478;50.820;4.330;2022-09-01T14:51:06;13.02;;;2.03;;
35522;SDS011;61478;50.820;4.330;2022-09-01T14:53:34;6.35;;;1.80;;
35522;SDS011;61478;50.820;4.330;2022-09-01T14:56:00;11.45;;;2.13;;
35522;SDS011;61478;50.820;4.330;2022-09-01T14:58:27;7.13;;;2.20;;
35522;SDS011;61478;50.820;4.330;2022-09-01T15:00:54;6.88;;;1.95;;
35522;SDS011;61478;50.820;4.330;2022-09-01T15:03:21;3.15;;;2.00;;
35522;SDS011;61478;50.820;4.330;2022-09-01T15:05:51;3.28;;;1.42;;
35522;SDS011;61478;50.820;4.330;2022-09-01T15:08:18;6.93;;;2.03;;
35522;SDS011;61478;50.820;4.330;2022-09-01T15:10:45;3.85;;;1.80;;
35522;SDS011;61478;50.820;4.330;2022-09-01T15:13:11;4.15;;;2.10;;
35522;SDS011;61478;50.820;4.330;2022-09-01T15:15:38;8.25;;;1.70;;
35522;SDS011;61478;50.820;4.330;2022-09-01T15:18:04;6.38;;;1.60;;
35522;SDS011;61478;50.820;4.330;2022-09-01T15:20:30;3.55;;;1.80;;
35522;SDS011;61478;50.820;4.330;2022-09-01T15:23:09;4.45;;;1.42;;
35522;SDS011;61478;50.820;4.330;2022-09-01T15:25:40;7.25;;;1.90;;
35522;SDS011;61478;50.820;4.330;2022-09-01T15:28:06;2.95;;;1.63;;
35522;SDS011;61478;50.820;4.330;2022-09-01T15:30:33;8.82;;;2.72;;
35522;SDS011;61478;50.820;4.330;2022-09-01T15:32:59;9.88;;;2.00;;
35522;SDS011;61478;50.820;4.330;2022-09-01T15:35:27;4.25;;;1.40;;
35522;SDS011;61478;50.820;4.330;2022-09-01T15:37:56;13.88;;;2.65;;
35522;SDS011;61478;50.820;4.330;2022-09-01T15:40:23;10.82;;;1.80;;
35522;SDS011;61478;50.820;4.330;2022-09-01T15:42:49;17.33;;;1.85;;
35522;SDS011;61478;50.820;4.330;2022-09-01T15:45:16;3.88;;;1.83;;
35522;SDS011;61478;50.820;4.330;2022-09-01T15:47:44;5.00;;;1.55;;
35522;SDS011;61478;50.820;4.330;2022-09-01T15:50:13;7.20;;;1.70;;
35522;SDS011;61478;50.820;4.330;2022-09-01T15:52:48;5.00;;;1.98;;
35522;SDS011;61478;50.820;4.330;2022-09-01T15:55:20;3.17;;;1.55;;
35522;SDS011;61478;50.820;4.330;2022-09-01T15:57:48;3.75;;;1.17;;
35522;SDS011;61478;50.820;4.330;2022-09-01T16:00:15;7.05;;;1.65;;
35522;SDS011;61478;50.820;4.330;2022-09-01T16:02:41;7.55;;;2.10;;
35522;SDS011;61478;50.820;4.330;2022-09-01T16:05:11;8.65;;;1.90;;
35522;SDS011;61478;50.820;4.330;2022-09-01T16:07:38;4.55;;;1.63;;
35522;SDS011;61478;50.820;4.330;2022-09-01T16:10:04;11.10;;;1.77;;
35522;SDS011;61478;50.820;4.330;2022-09-01T16:12:35;5.72;;;1.60;;